Time;durP1;ratioP1;P1;durP2;ratioP2;P2;SDS_P1;SDS_P2;PMS_P1;PMS_P2;Temp;Humidity;BMP_temperature;BMP_pressure;BME280_temperature;BME280_humidity;BME280_pressure;Samples;Min_cycle;Max_cycle;Signal;HPM_P1;HPM_P2
2022/04/23 00:01:30;;;;;;;12.93;7.78;;;10.80;99.90;;;;;;5000127;28;20081;-78
2022/04/23 00:03:55;;;;;;;13.98;8.05;;;10.90;99.90;;;;;;5016614;28;20045;-78
2022/04/23 00:06:21;;;;;;;13.13;7.43;;;10.80;99.90;;;;;;5016708;28;20508;-78
2022/04/23 00:08:46;;;;;;;12.65;9.07;;;10.80;99.90;;;;;;5016597;28;20100;-78
2022/04/23 00:11:12;;;;;;;15.93;8.40;;;10.80;99.90;;;;;;5016316;28;20045;-78
2022/04/23 00:13:38;;;;;;;12.63;8.23;;;10.80;99.90;;;;;;5034168;28;20041;-78
2022/04/23 00:16:07;;;;;;;11.98;7.63;;;10.80;99.90;;;;;;5016612;28;20037;-78
2022/04/23 00:18:32;;;;;;;14.43;8.48;;;10.80;99.90;;;;;;5016194;28;20164;-78
2022/04/23 00:20:58;;;;;;;13.65;8.07;;;10.80;99.90;;;;;;5016023;28;20045;-78
2022/04/23 00:23:25;;;;;;;12.65;8.05;;;10.80;99.90;;;;;;5000063;28;20045;-78
2022/04/23 00:25:52;;;;;;;12.82;8.52;;;10.70;99.90;;;;;;5015890;28;20488;-78
2022/04/23 00:28:18;;;;;;;14.25;8.45;;;10.70;99.90;;;;;;5016127;28;20065;-78
2022/04/23 00:30:45;;;;;;;15.27;8.40;;;10.70;99.90;;;;;;5033785;28;20662;-78
2022/04/23 00:33:10;;;;;;;16.65;9.27;;;10.70;99.90;;;;;;5016206;28;20045;-78
2022/04/23 00:35:36;;;;;;;14.95;8.73;;;10.70;99.90;;;;;;5016457;28;20045;-78
2022/04/23 00:38:03;;;;;;;16.25;9.30;;;10.60;99.90;;;;;;5014815;28;20049;-78
2022/04/23 00:40:30;;;;;;;16.00;8.77;;;10.70;99.90;;;;;;5015876;28;20045;-78
2022/04/23 00:42:57;;;;;;;15.68;8.73;;;10.70;99.90;;;;;;5016303;28;20045;-78
2022/04/23 00:45:27;;;;;;;14.50;8.43;;;10.70;99.90;;;;;;5016026;28;20130;-78
2022/04/23 00:47:53;;;;;;;16.27;9.45;;;10.70;99.90;;;;;;5015938;28;20408;-78
2022/04/23 00:50:22;;;;;;;16.33;9.05;;;10.70;99.90;;;;;;4999808;28;20064;-78
2022/04/23 00:52:58;;;;;;;15.98;9.60;;;10.70;99.90;;;;;;5015786;28;20440;-77
2022/04/23 00:55:25;;;;;;;18.48;9.85;;;10.70;99.90;;;;;;5017705;28;20041;-78
2022/04/23 00:57:51;;;;;;;14.80;8.35;;;10.70;99.90;;;;;;5016086;28;20106;-78
2022/04/23 01:00:18;;;;;;;15.00;9.27;;;10.70;99.90;;;;;;5015661;28;20467;-78
2022/04/23 01:02:44;;;;;;;18.83;9.48;;;10.70;99.90;;;;;;5016544;28;20420;-78
2022/04/23 01:05:10;;;;;;;15.45;9.07;;;10.70;99.90;;;;;;5015936;28;20056;-78
2022/04/23 01:07:45;;;;;;;16.70;9.68;;;10.60;99.90;;;;;;5015532;28;20505;-77
2022/04/23 01:10:11;;;;;;;16.00;9.80;;;10.60;99.90;;;;;;5015278;28;20048;-78
2022/04/23 01:12:38;;;;;;;14.10;9.52;;;10.60;99.90;;;;;;4999389;28;20042;-78
2022/04/23 01:15:07;;;;;;;13.68;9.18;;;10.60;99.90;;;;;;5015486;28;20048;-78
2022/04/23 01:17:34;;;;;;;17.65;8.85;;;10.50;99.90;;;;;;5015247;28;20091;-78
2022/04/23 01:20:04;;;;;;;18.00;10.00;;;10.50;99.90;;;;;;5015104;28;20049;-78
2022/04/23 01:22:30;;;;;;;21.40;10.07;;;10.50;99.90;;;;;;5015559;28;20511;-78
2022/04/23 01:24:57;;;;;;;24.25;10.27;;;10.50;99.90;;;;;;5015385;28;20045;-78
2022/04/23 01:27:31;;;;;;;16.75;9.90;;;10.40;99.90;;;;;;5032894;28;20068;-78
2022/04/23 01:29:56;;;;;;;15.85;9.23;;;10.40;99.90;;;;;;5015367;28;20120;-78
2022/04/23 01:32:22;;;;;;;18.42;10.27;;;10.40;99.90;;;;;;5014997;28;20116;-78
2022/04/23 01:34:47;;;;;;;14.40;9.48;;;10.50;99.90;;;;;;5015275;28;20131;-78
2022/04/23 01:37:13;;;;;;;16.33;10.43;;;10.50;99.90;;;;;;5033033;28;20084;-78
2022/04/23 01:39:39;;;;;;;16.63;9.60;;;10.50;99.90;;;;;;5014846;28;20033;-78
2022/04/23 01:42:05;;;;;;;16.55;10.20;;;10.50;99.90;;;;;;5014794;28;20437;-78
2022/04/23 01:44:31;;;;;;;15.60;9.70;;;10.40;99.90;;;;;;5014831;28;20083;-78
2022/04/23 01:46:57;;;;;;;13.48;9.75;;;10.40;99.90;;;;;;5014707;28;20045;-78
2022/04/23 01:49:22;;;;;;;14.38;9.25;;;10.30;99.90;;;;;;5014187;28;20050;-78
2022/04/23 01:51:48;;;;;;;17.08;9.85;;;10.30;99.90;;;;;;5014670;28;20037;-78
2022/04/23 01:54:13;;;;;;;15.32;8.73;;;10.30;99.90;;;;;;5032616;28;20480;-78
2022/04/23 01:56:39;;;;;;;16.88;9.60;;;10.20;99.90;;;;;;5015152;28;20125;-78
2022/04/23 01:59:04;;;;;;;15.68;10.20;;;10.20;99.90;;;;;;5014650;28;20049;-78
2022/04/23 02:01:30;;;;;;;14.45;9.80;;;10.20;99.90;;;;;;5014489;28;20107;-78
2022/04/23 02:03:55;;;;;;;17.08;10.68;;;10.20;99.90;;;;;;5014883;28;20037;-78
2022/04/23 02:06:21;;;;;;;15.50;9.65;;;10.10;99.90;;;;;;5014633;28;20041;-78
2022/04/23 02:08:46;;;;;;;15.30;9.48;;;10.10;99.90;;;;;;5014461;28;20052;-78
2022/04/23 02:11:12;;;;;;;16.92;10.45;;;10.10;99.90;;;;;;5014446;28;20045;-78
2022/04/23 02:13:38;;;;;;;19.20;10.30;;;10.20;99.90;;;;;;5014578;28;20091;-78
2022/04/23 02:16:04;;;;;;;17.75;10.02;;;10.10;99.90;;;;;;5014743;28;20068;-78
2022/04/23 02:18:30;;;;;;;16.02;9.82;;;10.10;99.90;;;;;;5014549;28;20060;-78
2022/04/23 02:20:56;;;;;;;16.17;10.93;;;10.10;99.90;;;;;;5014185;28;20041;-78
2022/04/23 02:23:21;;;;;;;14.40;9.75;;;10.00;99.90;;;;;;5014671;28;20376;-78
2022/04/23 02:25:47;;;;;;;22.45;10.05;;;10.00;99.90;;;;;;5014632;28;20054;-78
2022/04/23 02:28:12;;;;;;;15.15;10.18;;;10.00;99.90;;;;;;5014241;28;20053;-78
2022/04/23 02:30:38;;;;;;;15.75;9.57;;;9.90;99.90;;;;;;5014210;28;20073;-78
2022/04/23 02:33:04;;;;;;;14.18;9.20;;;10.00;99.90;;;;;;5015866;28;20056;-78
2022/04/23 02:35:30;;;;;;;17.50;9.80;;;9.90;99.90;;;;;;5020301;28;20051;-77
2022/04/23 02:37:56;;;;;;;16.10;10.15;;;9.90;99.90;;;;;;5019673;28;20045;-78
2022/04/23 02:40:22;;;;;;;17.10;10.27;;;9.90;99.90;;;;;;5015667;28;20432;-78
2022/04/23 02:42:50;;;;;;;14.95;9.35;;;9.90;99.90;;;;;;5014305;28;20120;-78
2022/04/23 02:45:16;;;;;;;13.48;7.97;;;9.80;99.90;;;;;;5014053;28;20083;-78
2022/04/23 02:47:42;;;;;;;16.05;9.77;;;9.80;99.90;;;;;;5013858;28;20051;-78
2022/04/23 02:50:09;;;;;;;17.23;10.25;;;9.80;99.90;;;;;;5013863;28;20124;-78
2022/04/23 02:52:35;;;;;;;15.38;10.45;;;9.80;99.90;;;;;;5014327;28;20551;-78
2022/04/23 02:55:01;;;;;;;16.45;8.93;;;9.70;99.90;;;;;;5014296;28;20037;-78
2022/04/23 02:57:26;;;;;;;15.27;9.55;;;9.70;99.90;;;;;;5013798;28;20041;-78
2022/04/23 02:59:52;;;;;;;14.65;9.32;;;9.60;99.90;;;;;;5013688;28;20052;-78
2022/04/23 03:02:17;;;;;;;15.13;9.40;;;9.60;99.90;;;;;;5013156;28;20128;-78
2022/04/23 03:04:43;;;;;;;16.95;8.98;;;9.50;99.90;;;;;;5014087;28;20041;-78
2022/04/23 03:07:10;;;;;;;15.88;9.23;;;9.40;99.90;;;;;;5013787;28;20049;-78
2022/04/23 03:09:39;;;;;;;19.00;9.68;;;9.30;99.90;;;;;;5013602;28;20049;-78
2022/04/23 03:12:05;;;;;;;14.45;9.43;;;9.30;99.90;;;;;;5013839;28;20527;-78
2022/04/23 03:14:31;;;;;;;14.68;8.27;;;9.20;99.90;;;;;;5013682;28;20077;-78
2022/04/23 03:16:56;;;;;;;17.67;8.40;;;9.20;99.90;;;;;;5013767;28;20133;-78
2022/04/23 03:19:22;;;;;;;15.98;9.40;;;9.20;99.90;;;;;;5013469;28;20037;-78
2022/04/23 03:21:47;;;;;;;17.70;9.55;;;9.20;99.90;;;;;;5013667;28;20049;-78
2022/04/23 03:24:13;;;;;;;15.35;9.10;;;9.20;99.90;;;;;;5013878;28;20050;-78
2022/04/23 03:26:38;;;;;;;15.32;8.75;;;9.10;99.90;;;;;;5013688;28;20488;-78
2022/04/23 03:29:04;;;;;;;12.25;7.82;;;9.20;99.90;;;;;;5013575;28;20050;-78
2022/04/23 03:31:30;;;;;;;12.10;7.63;;;9.10;99.90;;;;;;5013328;28;20397;-78
2022/04/23 03:33:56;;;;;;;16.20;8.30;;;9.20;99.90;;;;;;5013528;28;20045;-78
2022/04/23 03:36:21;;;;;;;14.23;7.78;;;9.10;99.90;;;;;;5013697;28;20068;-78
2022/04/23 03:38:47;;;;;;;13.23;8.40;;;9.10;99.90;;;;;;5013234;28;20049;-78
2022/04/23 03:41:13;;;;;;;12.93;8.07;;;9.10;99.90;;;;;;5013096;28;20045;-78
2022/04/23 03:43:38;;;;;;;15.50;8.73;;;9.00;99.90;;;;;;5013671;28;20462;-78
2022/04/23 03:46:04;;;;;;;11.82;7.82;;;9.00;99.90;;;;;;5015046;28;20107;-79
2022/04/23 03:48:29;;;;;;;17.00;8.73;;;9.00;99.90;;;;;;5013633;28;20051;-78
2022/04/23 03:50:55;;;;;;;14.60;8.52;;;9.00;99.90;;;;;;5013125;28;20044;-78
2022/04/23 03:53:21;;;;;;;12.27;8.85;;;9.00;99.90;;;;;;5031618;28;20034;-78
2022/04/23 03:55:46;;;;;;;13.05;7.47;;;9.00;99.90;;;;;;5013419;28;20489;-78
2022/04/23 03:58:12;;;;;;;15.05;9.82;;;9.00;99.90;;;;;;5012881;28;20492;-78
2022/04/23 04:00:38;;;;;;;16.52;13.25;;;9.00;99.90;;;;;;5012908;28;20495;-78
2022/04/23 04:03:03;;;;;;;14.32;7.75;;;9.00;99.90;;;;;;5013306;28;20041;-78
2022/04/23 04:05:29;;;;;;;19.90;12.32;;;9.10;99.90;;;;;;5013341;28;20049;-78
2022/04/23 04:07:55;;;;;;;13.82;8.35;;;9.00;99.90;;;;;;5030758;28;20049;-78
2022/04/23 04:10:22;;;;;;;15.20;8.90;;;9.00;99.90;;;;;;5030437;28;20048;-78
2022/04/23 04:12:48;;;;;;;15.50;8.57;;;9.00;99.90;;;;;;5014481;28;20132;-78
2022/04/23 04:15:15;;;;;;;13.48;8.60;;;9.00;99.90;;;;;;5016411;28;20045;-78
2022/04/23 04:17:41;;;;;;;14.40;8.82;;;9.00;99.90;;;;;;5000123;28;20041;-78
2022/04/23 04:20:11;;;;;;;14.02;7.80;;;9.10;99.90;;;;;;5016133;28;20072;-78
2022/04/23 04:22:37;;;;;;;12.52;7.85;;;9.10;99.90;;;;;;5016821;28;20120;-78
2022/04/23 04:25:04;;;;;;;13.93;8.00;;;9.00;99.90;;;;;;5016533;28;20049;-78
2022/04/23 04:27:29;;;;;;;13.73;7.95;;;9.10;99.90;;;;;;5016110;28;20101;-78
2022/04/23 04:29:55;;;;;;;11.93;8.02;;;9.10;99.90;;;;;;5016019;28;20120;-78
2022/04/23 04:32:20;;;;;;;11.05;8.27;;;9.00;99.90;;;;;;5034262;28;20404;-78
2022/04/23 04:34:46;;;;;;;11.05;8.43;;;9.00;99.90;;;;;;5016340;28;20156;-78
2022/04/23 04:37:13;;;;;;;12.55;7.65;;;9.00;99.90;;;;;;5016767;28;20106;-78
2022/04/23 04:39:40;;;;;;;12.15;7.72;;;9.10;99.90;;;;;;5016146;28;20532;-78
2022/04/23 04:42:07;;;;;;;14.95;7.80;;;9.10;99.90;;;;;;5016023;28;20065;-78
2022/04/23 04:44:33;;;;;;;13.05;7.63;;;9.10;99.90;;;;;;5016407;28;20541;-78
2022/04/23 04:46:58;;;;;;;15.82;8.65;;;9.00;99.90;;;;;;5016206;28;20419;-78
2022/04/23 04:49:25;;;;;;;12.57;7.78;;;9.10;99.90;;;;;;5033792;28;20037;-78
2022/04/23 04:51:52;;;;;;;13.55;8.27;;;9.10;99.90;;;;;;5015840;28;20477;-78
2022/04/23 04:54:18;;;;;;;9.82;6.53;;;9.10;99.90;;;;;;5016135;28;20053;-78
2022/04/23 04:56:44;;;;;;;12.77;7.80;;;9.20;99.90;;;;;;5016399;28;20051;-78
2022/04/23 04:59:10;;;;;;;11.77;7.30;;;9.30;99.90;;;;;;5016374;28;20135;-78
2022/04/23 05:01:36;;;;;;;10.35;6.93;;;9.40;99.90;;;;;;5015704;28;20077;-78
2022/04/23 05:04:02;;;;;;;9.45;6.47;;;9.50;99.90;;;;;;5033781;28;20056;-78
2022/04/23 05:06:28;;;;;;;11.50;6.65;;;9.70;99.90;;;;;;5015957;28;20060;-78
2022/04/23 05:08:53;;;;;;;9.82;6.97;;;9.80;99.90;;;;;;5015985;28;20476;-78
2022/04/23 05:11:19;;;;;;;10.98;6.47;;;9.90;99.90;;;;;;5015738;28;20045;-78
2022/04/23 05:13:44;;;;;;;12.52;8.40;;;10.00;99.90;;;;;;5016129;28;20131;-78
2022/04/23 05:16:10;;;;;;;12.50;6.38;;;10.00;99.90;;;;;;5033735;28;20052;-78
2022/04/23 05:18:36;;;;;;;9.13;6.70;;;9.90;99.90;;;;;;5016131;28;20449;-78
2022/04/23 05:21:02;;;;;;;10.25;6.13;;;9.80;99.90;;;;;;5015778;28;20412;-78
2022/04/23 05:23:27;;;;;;;10.20;6.28;;;9.70;99.90;;;;;;5015789;28;20061;-78
2022/04/23 05:25:53;;;;;;;8.25;5.95;;;9.70;99.90;;;;;;5016223;28;20087;-78
2022/04/23 05:28:18;;;;;;;9.35;5.82;;;9.80;99.90;;;;;;5015838;28;20045;-78
2022/04/23 05:30:45;;;;;;;9.68;6.32;;;9.80;99.90;;;;;;5015813;28;20044;-79
2022/04/23 05:33:11;;;;;;;11.25;6.63;;;9.90;99.90;;;;;;5015861;28;20056;-78
2022/04/23 05:35:37;;;;;;;8.20;6.32;;;9.90;99.90;;;;;;5015848;28;20152;-78
2022/04/23 05:38:02;;;;;;;9.18;6.20;;;10.00;99.90;;;;;;5015991;28;20120;-78
2022/04/23 05:40:28;;;;;;;8.68;5.30;;;10.10;99.90;;;;;;5015636;28;20126;-77
2022/04/23 05:42:57;;;;;;;9.15;6.00;;;10.10;99.90;;;;;;5007214;28;20048;-78
2022/04/23 05:45:26;;;;;;;8.80;5.85;;;10.10;99.90;;;;;;5023732;28;20048;-78
2022/04/23 05:47:52;;;;;;;9.50;6.22;;;10.10;99.90;;;;;;5017983;28;20099;-77
2022/04/23 05:50:17;;;;;;;8.00;5.70;;;10.10;99.90;;;;;;5015593;28;20041;-78
2022/04/23 05:52:43;;;;;;;11.40;5.85;;;10.20;99.90;;;;;;5015313;28;20042;-78
2022/04/23 05:55:09;;;;;;;8.52;5.93;;;10.20;99.90;;;;;;5016355;28;20064;-79
2022/04/23 05:57:35;;;;;;;9.35;5.78;;;10.30;99.90;;;;;;5016527;28;20049;-79
2022/04/23 06:00:02;;;;;;;10.00;5.97;;;10.40;99.90;;;;;;5015629;28;20041;-78
2022/04/23 06:02:28;;;;;;;9.38;6.18;;;10.40;99.90;;;;;;5015141;28;20114;-77
2022/04/23 06:04:53;;;;;;;14.73;6.53;;;10.40;99.90;;;;;;5015345;28;20480;-78
2022/04/23 06:07:19;;;;;;;8.98;5.60;;;10.40;99.90;;;;;;5014649;28;20049;-78
2022/04/23 06:09:45;;;;;;;7.47;5.30;;;10.40;99.90;;;;;;4998264;28;20163;-78
2022/04/23 06:12:11;;;;;;;9.88;5.55;;;10.40;99.90;;;;;;5015163;28;20041;-77
2022/04/23 06:14:37;;;;;;;8.32;5.78;;;10.40;99.90;;;;;;4998579;28;20468;-78
2022/04/23 06:17:07;;;;;;;11.00;6.03;;;10.50;99.90;;;;;;4999052;28;20037;-78
2022/04/23 06:19:33;;;;;;;7.50;5.93;;;10.50;99.90;;;;;;5015256;28;20049;-78
2022/04/23 06:21:59;;;;;;;10.00;6.55;;;10.60;99.90;;;;;;4998319;28;20041;-78
2022/04/23 06:24:25;;;;;;;8.43;5.75;;;10.70;99.90;;;;;;5015510;28;20045;-78
2022/04/23 06:26:51;;;;;;;9.60;6.13;;;10.80;99.90;;;;;;5015354;28;20041;-78
2022/04/23 06:29:17;;;;;;;12.63;6.35;;;10.90;99.90;;;;;;5015227;28;20045;-78
2022/04/23 06:31:43;;;;;;;8.95;6.32;;;11.00;99.90;;;;;;5015467;28;20077;-78
2022/04/23 06:34:09;;;;;;;11.00;6.78;;;11.10;99.90;;;;;;5015570;28;20460;-78
2022/04/23 06:36:36;;;;;;;9.77;6.90;;;11.20;99.90;;;;;;5014882;28;20128;-78
2022/04/23 06:39:03;;;;;;;7.97;5.40;;;11.30;99.90;;;;;;4999008;28;20479;-78
2022/04/23 06:41:28;;;;;;;11.02;7.18;;;11.40;99.90;;;;;;5015230;28;20493;-78
2022/04/23 06:43:54;;;;;;;11.57;6.20;;;11.60;99.90;;;;;;5015655;28;20120;-78
2022/04/23 06:46:19;;;;;;;7.75;6.25;;;12.00;99.90;;;;;;5034234;28;20049;-79
2022/04/23 06:48:45;;;;;;;10.30;7.15;;;12.20;99.90;;;;;;5015137;28;20136;-78
2022/04/23 06:51:10;;;;;;;10.73;7.13;;;12.30;99.90;;;;;;5014450;28;20086;-78
2022/04/23 06:53:36;;;;;;;9.85;7.32;;;12.40;99.90;;;;;;5015168;28;20076;-77
2022/04/23 06:56:03;;;;;;;11.57;6.82;;;12.50;99.90;;;;;;5015383;28;20665;-78
2022/04/23 06:58:29;;;;;;;10.25;6.72;;;12.30;99.90;;;;;;5015226;28;20076;-77
2022/04/23 07:00:54;;;;;;;11.68;6.90;;;12.20;99.90;;;;;;5017665;28;20083;-78
2022/04/23 07:03:20;;;;;;;10.80;8.00;;;12.10;99.90;;;;;;5014604;28;20041;-78
2022/04/23 07:05:46;;;;;;;11.57;6.82;;;12.10;99.90;;;;;;4998552;28;20033;-79
2022/04/23 07:08:12;;;;;;;10.10;7.25;;;12.10;99.90;;;;;;5015168;28;20089;-79
2022/04/23 07:10:38;;;;;;;11.10;6.80;;;12.10;99.90;;;;;;5015350;28;20128;-79
2022/04/23 07:13:04;;;;;;;12.82;6.75;;;12.20;99.90;;;;;;5033939;28;20045;-79
2022/04/23 07:15:31;;;;;;;11.75;7.20;;;12.50;99.90;;;;;;5014034;28;20048;-78
2022/04/23 07:17:57;;;;;;;10.80;7.43;;;12.80;99.90;;;;;;5014898;28;20046;-78
2022/04/23 07:20:23;;;;;;;9.90;6.28;;;13.20;99.90;;;;;;5013869;28;20123;-77
2022/04/23 07:25:34;;;;;;;12.68;7.88;;;13.70;99.90;;;;;;5032015;28;20096;-77
2022/04/23 07:28:00;;;;;;;11.88;7.63;;;14.10;99.90;;;;;;4998480;28;20436;-78
2022/04/23 07:30:27;;;;;;;12.10;8.43;;;14.20;99.90;;;;;;5014172;28;20045;-78
2022/04/23 07:32:53;;;;;;;11.38;7.75;;;14.50;99.90;;;;;;5018903;28;20524;-79
2022/04/23 07:38:17;;;;;;;11.25;8.10;;;15.00;99.90;;;;;;5034460;28;20078;-79
2022/04/23 07:40:49;;;;;;;12.15;7.80;;;15.00;99.90;;;;;;5034395;28;20046;-78
2022/04/23 07:43:16;;;;;;;14.18;7.45;;;15.20;99.90;;;;;;5019752;28;20460;-79
2022/04/23 07:45:43;;;;;;;12.15;8.13;;;15.50;99.90;;;;;;5019600;28;20064;-78
2022/04/23 07:48:10;;;;;;;19.90;9.63;;;15.70;99.90;;;;;;5021842;28;20495;-79
2022/04/23 07:50:38;;;;;;;11.10;7.95;;;16.20;99.90;;;;;;5024616;28;20069;-78
2022/04/23 07:53:04;;;;;;;10.98;8.43;;;16.40;99.90;;;;;;5023568;28;20033;-80
2022/04/23 07:55:35;;;;;;;10.18;7.25;;;16.50;99.90;;;;;;5006553;28;20099;-79
2022/04/23 07:58:01;;;;;;;12.50;8.73;;;16.40;99.90;;;;;;5024222;28;20052;-78
2022/04/23 08:00:28;;;;;;;15.30;7.60;;;16.40;99.90;;;;;;5040292;28;20045;-77
2022/04/23 08:02:53;;;;;;;18.63;8.38;;;16.30;99.90;;;;;;5024310;28;20037;-79
2022/04/23 08:05:19;;;;;;;12.27;7.82;;;16.50;99.90;;;;;;5042013;28;20654;-78
2022/04/23 08:07:44;;;;;;;13.45;8.82;;;16.70;99.90;;;;;;5022172;28;20042;-78
2022/04/23 08:10:11;;;;;;;12.82;8.00;;;16.70;99.90;;;;;;5022710;28;20077;-79
2022/04/23 08:12:37;;;;;;;11.70;8.18;;;17.00;99.90;;;;;;5021698;28;20034;-78
2022/04/23 08:15:04;;;;;;;10.68;7.60;;;17.10;99.90;;;;;;5007672;28;20083;-77
2022/04/23 08:17:30;;;;;;;11.18;6.82;;;17.30;99.90;;;;;;5038592;28;20129;-77
2022/04/23 08:19:55;;;;;;;10.57;7.28;;;17.30;99.20;;;;;;5021608;28;20056;-79
2022/04/23 08:22:21;;;;;;;13.05;8.30;;;17.10;99.90;;;;;;5021716;28;20049;-78
2022/04/23 08:24:47;;;;;;;17.95;8.27;;;17.20;96.40;;;;;;5023457;28;20101;-79
2022/04/23 08:27:12;;;;;;;10.75;6.95;;;17.00;98.50;;;;;;5023624;28;20063;-79
2022/04/23 08:32:22;;;;;;;11.25;7.97;;;17.30;98.90;;;;;;5022695;28;20056;-79
2022/04/23 08:34:47;;;;;;;10.48;6.07;;;17.60;97.40;;;;;;5022433;28;20412;-77
2022/04/23 08:37:13;;;;;;;12.20;7.97;;;17.40;94.70;;;;;;5019697;28;20049;-79
2022/04/23 08:39:39;;;;;;;10.30;7.38;;;17.40;96.40;;;;;;5017043;28;20050;-79
2022/04/23 08:42:06;;;;;;;11.52;7.93;;;17.60;95.70;;;;;;5012213;28;20123;-79
2022/04/23 08:44:32;;;;;;;13.20;7.03;;;17.70;95.60;;;;;;5052554;28;20530;-78
2022/04/23 08:46:58;;;;;;;12.23;6.65;;;17.80;93.30;;;;;;5027696;28;20037;-77
2022/04/23 08:49:32;;;;;;;16.52;7.40;;;17.80;81.00;;;;;;5022320;28;20077;-77
2022/04/23 08:52:09;;;;;;;10.80;7.82;;;17.50;83.00;;;;;;5019859;28;20373;-77
2022/04/23 08:54:36;;;;;;;11.98;7.85;;;17.20;79.20;;;;;;5020101;28;20381;-78
2022/04/23 08:57:02;;;;;;;12.48;7.80;;;17.20;90.40;;;;;;5021476;28;20460;-77
2022/04/23 08:59:28;;;;;;;9.75;7.40;;;17.20;90.60;;;;;;5019683;28;20049;-78
2022/04/23 09:01:53;;;;;;;9.23;6.75;;;17.10;86.30;;;;;;5025760;28;20049;-80
2022/04/23 09:04:19;;;;;;;12.27;7.28;;;17.00;90.10;;;;;;5028479;28;20049;-80
2022/04/23 09:06:47;;;;;;;9.43;6.97;;;17.10;88.80;;;;;;5044621;28;20049;-79
2022/04/23 09:09:14;;;;;;;9.85;6.93;;;17.20;76.90;;;;;;5020685;28;20041;-79
2022/04/23 09:11:45;;;;;;;14.07;7.88;;;17.10;86.10;;;;;;5018155;28;20073;-80
2022/04/23 09:14:27;;;;;;;15.55;7.78;;;17.00;79.60;;;;;;5018446;28;20052;-80
2022/04/23 09:25:35;;;;;;;11.07;7.20;;;17.00;87.60;;;;;;5018574;28;20060;-79
2022/04/23 09:28:29;;;;;;;13.10;8.15;;;17.10;81.40;;;;;;5017832;28;20041;-81
2022/04/23 09:30:55;;;;;;;9.25;7.68;;;17.40;83.70;;;;;;5001176;28;20075;-80
2022/04/23 09:33:28;;;;;;;11.02;7.90;;;17.70;85.30;;;;;;5017275;28;20383;-79
2022/04/23 09:35:58;;;;;;;15.88;8.32;;;17.90;81.90;;;;;;5018130;28;20064;-80
2022/04/23 09:38:25;;;;;;;9.52;7.40;;;18.10;78.30;;;;;;5002370;28;20052;-79
2022/04/23 09:41:15;;;;;;;10.40;7.18;;;18.20;77.70;;;;;;5016528;28;20083;-79
2022/04/23 09:43:43;;;;;;;10.50;7.82;;;18.30;71.30;;;;;;5033502;28;20041;-80
2022/04/23 09:46:09;;;;;;;9.82;7.35;;;18.50;78.50;;;;;;5017683;28;20087;-79
2022/04/23 09:48:38;;;;;;;15.60;7.95;;;18.50;71.20;;;;;;5017770;28;20085;-80
2022/04/23 09:51:05;;;;;;;12.02;7.25;;;18.40;74.30;;;;;;5014905;28;20496;-80
2022/04/23 09:53:31;;;;;;;11.82;7.85;;;18.30;73.30;;;;;;5018474;28;20036;-80
2022/04/23 09:56:01;;;;;;;11.32;7.68;;;18.40;74.80;;;;;;5015627;28;20037;-80
2022/04/23 09:58:30;;;;;;;12.07;8.40;;;18.30;69.00;;;;;;5017494;28;20124;-80
2022/04/23 10:00:58;;;;;;;12.70;8.02;;;18.30;73.10;;;;;;5003079;28;20129;-79
2022/04/23 10:03:31;;;;;;;15.07;7.65;;;18.40;73.70;;;;;;5018467;28;20056;-81
2022/04/23 10:05:58;;;;;;;12.77;8.23;;;18.60;62.20;;;;;;5002759;28;20030;-80
2022/04/23 10:08:34;;;;;;;12.10;8.00;;;18.40;68.00;;;;;;5018164;28;20648;-79
2022/04/23 10:11:16;;;;;;;13.75;8.30;;;18.20;65.00;;;;;;5018793;28;20508;-79
2022/04/23 10:13:46;;;;;;;12.50;7.50;;;17.90;66.40;;;;;;5018547;28;20045;-79
2022/04/23 10:16:13;;;;;;;11.15;8.13;;;17.80;66.80;;;;;;5018670;28;20310;-78
2022/04/23 10:18:40;;;;;;;13.45;8.57;;;17.80;71.40;;;;;;5004141;28;20033;-79
2022/04/23 10:21:19;;;;;;;22.33;11.32;;;17.90;72.40;;;;;;5002569;28;20042;-81
2022/04/23 10:24:05;;;;;;;13.10;8.32;;;18.00;64.70;;;;;;5017842;28;20045;-80
2022/04/23 10:26:40;;;;;;;11.75;8.07;;;17.80;64.30;;;;;;5000279;28;20084;-80
2022/04/23 10:29:16;;;;;;;12.25;8.57;;;17.50;67.20;;;;;;4999948;28;20037;-79
2022/04/23 10:31:42;;;;;;;13.25;8.60;;;17.60;75.30;;;;;;4999774;28;20049;-80
2022/04/23 10:34:31;;;;;;;14.27;9.00;;;17.80;72.20;;;;;;5016153;28;20079;-80
2022/04/23 10:37:19;;;;;;;10.88;7.72;;;18.10;73.30;;;;;;5018588;28;20056;-80
2022/04/23 10:40:05;;;;;;;10.18;7.60;;;18.20;67.40;;;;;;4999515;28;20049;-80
2022/04/23 10:42:32;;;;;;;13.20;8.23;;;18.20;67.30;;;;;;5016615;28;20065;-80
2022/04/23 10:45:01;;;;;;;11.05;8.80;;;17.90;69.20;;;;;;5001060;28;20072;-79
2022/04/23 10:47:30;;;;;;;13.93;8.93;;;17.70;69.70;;;;;;5017059;28;20420;-80
2022/04/23 10:50:19;;;;;;;11.93;8.18;;;17.90;73.30;;;;;;5001740;28;20034;-79
2022/04/23 10:52:46;;;;;;;14.25;9.05;;;18.00;68.70;;;;;;5017734;28;20084;-79
2022/04/23 10:55:13;;;;;;;14.05;8.60;;;18.10;71.30;;;;;;5034101;28;20045;-80
2022/04/23 10:57:39;;;;;;;15.45;9.15;;;18.20;67.50;;;;;;5015791;28;20049;-79
2022/04/23 11:00:11;;;;;;;13.30;8.45;;;18.40;69.80;;;;;;5016947;28;20055;-79
2022/04/23 11:02:39;;;;;;;13.93;7.43;;;18.50;64.90;;;;;;5017164;28;20099;-80
2022/04/23 11:13:58;;;;;;;13.65;8.13;;;18.20;65.60;;;;;;5016523;28;20052;-79
2022/04/23 11:16:30;;;;;;;14.77;7.32;;;18.30;62.30;;;;;;5018772;28;20452;-79
2022/04/23 11:18:59;;;;;;;13.43;7.90;;;18.40;64.00;;;;;;5002336;28;20041;-79
2022/04/23 11:21:27;;;;;;;14.25;7.50;;;18.50;64.20;;;;;;5016043;28;20100;-79
2022/04/23 11:23:54;;;;;;;12.85;9.00;;;18.60;65.90;;;;;;5016607;28;20045;-78
2022/04/23 11:26:41;;;;;;;14.93;8.18;;;18.70;62.60;;;;;;5016862;28;20088;-79
2022/04/23 11:29:06;;;;;;;13.32;8.02;;;18.90;60.20;;;;;;4998723;28;20041;-79
2022/04/23 11:31:32;;;;;;;11.40;8.35;;;18.90;59.70;;;;;;5017184;28;20101;-79
2022/04/23 11:34:02;;;;;;;15.43;7.53;;;18.90;60.20;;;;;;5017089;28;20045;-80
2022/04/23 11:36:32;;;;;;;11.88;7.80;;;18.90;58.30;;;;;;5016419;28;20056;-80
2022/04/23 11:39:09;;;;;;;9.25;7.68;;;18.80;59.70;;;;;;5016028;28;20109;-80
2022/04/23 11:41:42;;;;;;;9.98;7.97;;;18.90;60.80;;;;;;5016182;28;20064;-80
2022/04/23 11:47:11;;;;;;;10.32;7.78;;;18.90;58.40;;;;;;5016067;28;20049;-79
2022/04/23 11:49:36;;;;;;;11.98;6.55;;;19.10;61.40;;;;;;5017145;28;20116;-79
2022/04/23 11:52:04;;;;;;;12.30;8.13;;;19.10;59.40;;;;;;5034208;28;20476;-79
2022/04/23 11:54:33;;;;;;;13.98;7.43;;;19.10;58.80;;;;;;5016417;28;20049;-79
2022/04/23 11:56:58;;;;;;;10.98;7.43;;;18.80;58.80;;;;;;5015975;28;20053;-79
2022/04/23 11:59:24;;;;;;;11.27;7.38;;;18.80;59.90;;;;;;4999183;28;20128;-79
2022/04/23 12:01:49;;;;;;;10.15;7.07;;;18.90;59.70;;;;;;5017066;28;20051;-80
2022/04/23 12:04:15;;;;;;;10.85;7.32;;;19.00;58.40;;;;;;5000169;28;20048;-79
2022/04/23 12:06:46;;;;;;;8.75;6.65;;;19.10;57.60;;;;;;4999763;28;20056;-80
2022/04/23 12:09:12;;;;;;;11.75;7.68;;;19.10;55.70;;;;;;5015514;28;20131;-81
2022/04/23 12:11:39;;;;;;;9.68;7.80;;;18.70;56.60;;;;;;5016136;28;20107;-79
2022/04/23 12:14:05;;;;;;;10.75;7.75;;;18.50;58.10;;;;;;5016171;28;20049;-79
2022/04/23 12:16:32;;;;;;;8.90;6.80;;;18.60;57.10;;;;;;5034545;28;20072;-79
2022/04/23 12:19:13;;;;;;;9.48;6.60;;;18.60;57.80;;;;;;5034709;28;20099;-79
2022/04/23 12:21:54;;;;;;;8.45;6.53;;;18.80;54.80;;;;;;5014192;28;20045;-78
2022/04/23 12:24:34;;;;;;;11.93;6.80;;;18.80;56.30;;;;;;5015925;28;20057;-79
2022/04/23 12:27:04;;;;;;;8.40;6.53;;;18.80;56.00;;;;;;5017205;28;20264;-79
2022/04/23 12:40:45;;;;;;;9.68;5.40;;;18.80;53.50;;;;;;5019355;28;20416;-79
2022/04/23 12:43:22;;;;;;;9.48;5.30;;;18.70;53.70;;;;;;5003296;28;20042;-79
2022/04/23 12:45:48;;;;;;;10.38;5.70;;;18.70;53.30;;;;;;5019156;28;20045;-79
2022/04/23 12:48:14;;;;;;;7.55;5.93;;;18.80;53.60;;;;;;5019437;28;20049;-79
2022/04/23 12:50:41;;;;;;;8.93;5.13;;;18.90;54.30;;;;;;5019754;28;20033;-79
2022/04/23 12:53:06;;;;;;;6.72;4.97;;;18.90;52.10;;;;;;5018651;28;20049;-79
2022/04/23 12:55:37;;;;;;;6.38;4.78;;;18.90;52.50;;;;;;5019012;28;20048;-78
2022/04/23 12:58:03;;;;;;;6.95;5.13;;;18.70;52.10;;;;;;5016457;28;20048;-78
2022/04/23 13:00:41;;;;;;;7.32;5.43;;;18.60;52.30;;;;;;5016318;28;20049;-78
2022/04/23 13:05:55;;;;;;;6.72;5.22;;;18.70;51.70;;;;;;5017571;28;20489;-79
2022/04/23 13:13:49;;;;;;;9.75;5.90;;;18.90;52.00;;;;;;5015725;28;20539;-77
2022/04/23 13:16:14;;;;;;;7.25;4.88;;;18.60;52.20;;;;;;5015771;28;20053;-78
2022/04/23 13:18:40;;;;;;;5.63;4.68;;;18.80;52.60;;;;;;5015585;28;20045;-78
2022/04/23 13:21:07;;;;;;;7.90;4.72;;;18.90;50.50;;;;;;5015189;28;20052;-79
2022/04/23 13:23:33;;;;;;;6.43;4.72;;;19.00;51.70;;;;;;5016086;28;20483;-79
2022/04/23 13:25:59;;;;;;;7.30;4.53;;;19.10;51.70;;;;;;5015514;28;20179;-78
2022/04/23 13:28:25;;;;;;;5.28;4.78;;;19.20;50.90;;;;;;5015352;28;20123;-77
2022/04/23 13:30:52;;;;;;;6.55;5.10;;;19.20;50.30;;;;;;5015614;28;20045;-77